Latest Weather Observations for Fawkner Beacon

IDV60801

Issued at 9:05 pm EST Monday 1 September 2014 (issued every 30 minutes, with the page automatically refreshed every 10 minutes)

About weather observations | Map of weather stations | Latest weather observations for VIC | Other Formats
Station Details ID: 086376 Name: FAWKNER BEACON Lat: -37.91 Lon: 144.93 Height: 17.0 m
Data from the previous 72 hours. | See also: Recent months for locations in Victoria
Date/Time
EST
Temp
°C
App
Temp
°C
Dew
Point
Rel
Hum
%
Delta-T
°C
Wind Press
QNH
hPa
Press
MSL
hPa
Rain
since 9 am
mm
Dir
 
Spd
km/h
Gust
km/h
Spd
kts
Gust
kts
01/09:00pm - - - - - WNW 20 24 11 13 - - -
01/08:30pm - - - - - W 19 24 10 13 - - -
01/08:00pm - - - - - W 19 22 10 12 - - -
01/07:30pm - - - - - SW 20 24 11 13 - - -
01/07:00pm - - - - - SW 19 22 10 12 - - -
01/06:30pm - - - - - W 13 26 7 14 - - -
01/06:00pm - - - - - WSW 9 11 5 6 - - -
01/05:30pm - - - - - WSW 9 11 5 6 - - -
01/05:00pm - - - - - SSW 13 17 7 9 - - -
01/04:30pm - - - - - W 11 13 6 7 - - -
01/04:00pm - - - - - W 13 15 7 8 - - -
01/03:30pm - - - - - W 17 22 9 12 - - -
01/03:00pm - - - - - WSW 17 20 9 11 - - -
01/02:30pm - - - - - WSW 26 32 14 17 - - -
01/02:03pm - - - - - SW 35 44 19 24 - - -
01/02:00pm - - - - - NNW 11 17 6 9 - - -
01/01:30pm - - - - - N 17 20 9 11 - - -
01/01:00pm - - - - - NNW 17 22 9 12 - - -
01/12:30pm - - - - - NNW 24 28 13 15 - - -
01/12:00pm - - - - - N 22 24 12 13 - - -
01/11:30am - - - - - NNW 17 20 9 11 - - -
01/11:00am - - - - - WNW 26 30 14 16 - - -
01/10:30am - - - - - NNW 30 35 16 19 - - -
01/10:00am - - - - - NW 28 32 15 17 - - -
01/09:30am - - - - - NW 30 39 16 21 - - -
01/09:00am - - - - - NNW 33 41 18 22 - - -
01/08:30am - - - - - NW 28 32 15 17 - - -
01/08:00am - - - - - NNW 46 61 25 33 - - -
01/07:30am - - - - - NNW 39 46 21 25 - - -
01/07:00am - - - - - N 48 59 26 32 - - -
01/06:30am - - - - - N 54 63 29 34 - - -
01/06:00am - - - - - NNW 44 59 24 32 - - -
01/05:30am - - - - - NNW 46 59 25 32 - - -
01/05:00am - - - - - NNW 46 57 25 31 - - -
01/04:30am - - - - - N 48 57 26 31 - - -
01/04:00am - - - - - N 50 61 27 33 - - -
01/03:30am - - - - - N 48 61 26 33 - - -
01/03:00am - - - - - N 57 70 31 38 - - -
01/02:30am - - - - - N 52 69 28 37 - - -
01/02:27am - - - - - N 48 67 26 36 - - -
01/02:00am - - - - - N 52 67 28 36 - - -
01/01:51am - - - - - N 48 67 26 36 - - -
01/01:30am - - - - - N 50 61 27 33 - - -
01/01:00am - - - - - N 46 54 25 29 - - -
01/12:30am - - - - - N 44 59 24 32 - - -
01/12:15am - - - - - N 46 54 25 29 - - -
01/12:00am - - - - - NNW 28 35 15 19 - - -
 
Date/Time
EST
Temp
°C
App
Temp
°C
Dew
Point
Rel
Hum
%
Delta-T
°C
Wind Press
QNH
hPa
Press
MSL
hPa
Rain
since 9 am
mm
Dir
 
Spd
km/h
Gust
km/h
Spd
kts
Gust
kts
31/11:30pm - - - - - N 28 32 15 17 - - -
31/11:00pm - - - - - N 32 41 17 22 - - -
31/10:30pm - - - - - N 39 44 21 24 - - -
31/10:00pm - - - - - N 39 43 21 23 - - -
31/09:30pm - - - - - N 32 35 17 19 - - -
31/09:00pm - - - - - N 32 35 17 19 - - -
31/08:30pm - - - - - N 33 39 18 21 - - -
31/08:00pm - - - - - N 32 39 17 21 - - -
31/07:30pm - - - - - N 32 39 17 21 - - -
31/07:00pm - - - - - N 32 35 17 19 - - -
31/06:30pm - - - - - N 33 43 18 23 - - -
31/06:00pm - - - - - N 37 43 20 23 - - -
31/05:30pm - - - - - N 39 44 21 24 - - -
31/05:00pm - - - - - N 37 43 20 23 - - -
31/04:30pm - - - - - N 39 44 21 24 - - -
31/04:00pm - - - - - N 39 44 21 24 - - -
31/03:30pm - - - - - N 37 44 20 24 - - -
31/03:00pm - - - - - N 39 44 21 24 - - -
31/02:30pm - - - - - N 32 39 17 21 - - -
31/02:00pm - - - - - N 32 39 17 21 - - -
31/01:30pm - - - - - N 41 48 22 26 - - -
31/01:00pm - - - - - N 35 43 19 23 - - -
31/12:30pm - - - - - N 33 41 18 22 - - -
31/12:00pm - - - - - N 33 39 18 21 - - -
31/11:30am - - - - - N 35 41 19 22 - - -
31/11:00am - - - - - N 33 41 18 22 - - -
31/10:30am - - - - - N 32 41 17 22 - - -
31/10:00am - - - - - N 33 39 18 21 - - -
31/09:30am - - - - - N 30 33 16 18 - - -
31/09:00am - - - - - N 28 32 15 17 - - -
31/08:30am - - - - - N 30 33 16 18 - - -
31/08:00am - - - - - N 30 35 16 19 - - -
31/07:30am - - - - - N 26 32 14 17 - - -
31/07:00am - - - - - N 26 32 14 17 - - -
31/06:30am - - - - - N 26 30 14 16 - - -
31/06:00am - - - - - N 24 28 13 15 - - -
31/05:30am - - - - - N 24 30 13 16 - - -
31/05:00am - - - - - N 24 28 13 15 - - -
31/04:30am - - - - - N 22 26 12 14 - - -
31/04:00am - - - - - N 24 26 13 14 - - -
31/03:30am - - - - - N 24 28 13 15 - - -
31/03:00am - - - - - N 24 28 13 15 - - -
31/02:30am - - - - - N 24 26 13 14 - - -
31/02:00am - - - - - N 22 24 12 13 - - -
31/01:30am - - - - - N 24 26 13 14 - - -
31/01:00am - - - - - N 20 22 11 12 - - -
31/12:30am - - - - - N 19 24 10 13 - - -
31/12:00am - - - - - N 20 24 11 13 - - -
 
Date/Time
EST
Temp
°C
App
Temp
°C
Dew
Point
Rel
Hum
%
Delta-T
°C
Wind Press
QNH
hPa
Press
MSL
hPa
Rain
since 9 am
mm
Dir
 
Spd
km/h
Gust
km/h
Spd
kts
Gust
kts
30/11:30pm - - - - - N 22 24 12 13 - - -
30/11:00pm - - - - - N 22 24 12 13 - - -
30/10:30pm - - - - - N 15 17 8 9 - - -
30/10:00pm - - - - - NNW 13 15 7 8 - - -
30/09:30pm - - - - - NW 15 17 8 9 - - -
30/09:00pm - - - - - N 20 22 11 12 - - -
30/08:30pm - - - - - N 24 26 13 14 - - -
30/08:00pm - - - - - N 19 22 10 12 - - -
30/07:30pm - - - - - N 19 22 10 12 - - -
30/07:00pm - - - - - N 22 24 12 13 - - -
30/06:30pm - - - - - N 24 26 13 14 - - -
30/06:00pm - - - - - N 26 28 14 15 - - -
30/05:30pm - - - - - N 24 26 13 14 - - -
30/05:00pm - - - - - NNE 9 17 5 9 - - -
30/04:30pm - - - - - E 7 9 4 5 - - -
30/04:00pm - - - - - SE 9 11 5 6 - - -
30/03:30pm - - - - - SE 11 13 6 7 - - -
30/03:00pm - - - - - ESE 13 17 7 9 - - -
30/02:30pm - - - - - SE 17 20 9 11 - - -
30/02:00pm - - - - - S 15 17 8 9 - - -
30/01:30pm - - - - - SE 13 15 7 8 - - -
30/01:00pm - - - - - SSE 15 17 8 9 - - -
30/12:30pm - - - - - SSE 17 20 9 11 - - -
30/12:00pm - - - - - SE 15 17 8 9 - - -
30/11:30am - - - - - SE 11 13 6 7 - - -
30/11:00am - - - - - NE 7 9 4 5 - - -
30/10:30am - - - - - NNE 4 6 2 3 - - -
30/10:00am - - - - - N 6 7 3 4 - - -
30/09:30am - - - - - N 6 11 3 6 - - -
30/09:00am - - - - - NNE 7 11 4 6 - - -
30/08:30am - - - - - N 7 11 4 6 - - -
30/08:00am - - - - - N 9 13 5 7 - - -
30/07:30am - - - - - NNE 11 15 6 8 - - -
30/07:00am - - - - - N 9 13 5 7 - - -
30/06:30am - - - - - N 11 17 6 9 - - -
30/06:00am - - - - - N 13 20 7 11 - - -
30/05:30am - - - - - N 11 17 6 9 - - -
30/05:00am - - - - - N 11 13 6 7 - - -
30/04:30am - - - - - N 9 13 5 7 - - -
30/04:00am - - - - - E 4 6 2 3 - - -
30/03:30am - - - - - E 7 11 4 6 - - -
30/03:00am - - - - - ESE 13 17 7 9 - - -
30/02:30am - - - - - ESE 11 11 6 6 - - -
30/02:00am - - - - - ESE 11 15 6 8 - - -
30/01:30am - - - - - ESE 15 17 8 9 - - -
30/01:00am - - - - - E 13 17 7 9 - - -
30/12:30am - - - - - ESE 9 15 5 8 - - -
30/12:00am - - - - - SSE 9 11 5 6 - - -
 
Date/Time
EST
Temp
°C
App
Temp
°C
Dew
Point
Rel
Hum
%
Delta-T
°C
Wind Press
QNH
hPa
Press
MSL
hPa
Rain
since 9 am
mm
Dir
 
Spd
km/h
Gust
km/h
Spd
kts
Gust
kts
29/11:30pm - - - - - S 11 13 6 7 - - -
29/11:00pm - - - - - S 11 13 6 7 - - -
29/10:30pm - - - - - SSE 11 13 6 7 - - -
29/10:00pm - - - - - SSE 13 15 7 8 - - -
29/09:30pm - - - - - SE 13 17 7 9 - - -

Other Formats:

Comma delimited format used in spreadsheet applications
http://www.bom.gov.au/fwo/IDV60801/IDV60801.95872.axf

JavaScript Object Notation format (JSON) in row-major order
http://www.bom.gov.au/fwo/IDV60801/IDV60801.95872.json